Terminal Aerodrome Forecast
Issued by NWS Shreveport, LA

Home | Current Version | Previous Version | Text Only | Print | Product List | Glossary On
Versions: 1 2 3 4 5 6 7 8 9 10 11 12
084
FTUS44 KSHV 251132
TAFTXK
TAF
KTXK 251132Z 2512/2612 16004KT P6SM SCT035 BKN250
      TEMPO 2512/2514 5SM BR
     FM251600 17007KT P6SM SCT040 BKN250
     FM260000 VRB04KT P6SM BKN050 BKN250
     FM260300 02006KT P6SM BKN050 BKN250=

USA.gov is the U.S. government's official web portal to all federal, state and local government web resources and services.